Time;durP1;ratioP1;P1;durP2;ratioP2;P2;SDS_P1;SDS_P2;PMS_P1;PMS_P2;Temp;Humidity;BMP_temperature;BMP_pressure;BME280_temperature;BME280_humidity;BME280_pressure;Samples;Min_cycle;Max_cycle;Signal;HPM_P1;HPM_P2
2023/04/03 00:02:02;;;;;;;8.68;1.25;;;;;;;;;;4939188;29;20052;-79
2023/04/03 00:04:29;;;;;;;11.65;1.52;;;;;;;;;;4937919;29;20135;-79
2023/04/03 00:06:56;;;;;;;7.55;1.45;;;;;;;;;;4939865;29;20047;-78
2023/04/03 00:09:23;;;;;;;4.90;1.50;;;;;;;;;;4939172;29;20070;-78
2023/04/03 00:11:50;;;;;;;6.80;1.27;;;;;;;;;;4941034;29;20048;-79
2023/04/03 00:14:16;;;;;;;10.65;1.52;;;;;;;;;;4924838;29;20079;-79
2023/04/03 00:16:43;;;;;;;9.40;1.48;;;;;;;;;;4943687;29;20048;-79
2023/04/03 00:19:11;;;;;;;7.43;1.35;;;;;;;;;;4942040;29;20078;-80
2023/04/03 00:21:38;;;;;;;6.35;1.55;;;;;;;;;;4941420;29;20062;-78
2023/04/03 00:24:05;;;;;;;11.27;1.50;;;;;;;;;;4940310;29;20124;-79
2023/04/03 00:26:32;;;;;;;6.22;1.40;;;;;;;;;;4939170;29;20040;-78
2023/04/03 00:28:58;;;;;;;8.73;1.60;;;;;;;;;;4937180;29;20138;-78
2023/04/03 00:31:26;;;;;;;10.93;1.30;;;;;;;;;;4936249;29;20105;-78
2023/04/03 00:33:52;;;;;;;5.43;1.20;;;;;;;;;;4935566;29;20055;-79
2023/04/03 00:36:19;;;;;;;6.80;1.50;;;;;;;;;;4935731;29;20054;-78
2023/04/03 00:38:46;;;;;;;5.47;1.40;;;;;;;;;;4956623;28;20043;-78
2023/04/03 00:41:13;;;;;;;5.32;1.40;;;;;;;;;;4958666;28;20044;-78
2023/04/03 00:43:40;;;;;;;7.47;1.52;;;;;;;;;;4954684;28;20047;-78
2023/04/03 00:46:07;;;;;;;7.63;1.38;;;;;;;;;;4955983;28;20078;-79
2023/04/03 00:48:37;;;;;;;6.82;1.42;;;;;;;;;;4938547;28;20050;-78
2023/04/03 00:51:05;;;;;;;5.18;1.58;;;;;;;;;;4939504;28;20071;-79
2023/04/03 00:53:35;;;;;;;9.50;1.40;;;;;;;;;;4937281;29;20071;-80
2023/04/03 00:56:05;;;;;;;5.68;1.52;;;;;;;;;;4935438;29;20130;-78
2023/04/03 00:58:41;;;;;;;8.98;1.50;;;;;;;;;;4934876;29;20143;-78
2023/04/03 01:01:11;;;;;;;5.22;1.17;;;;;;;;;;4935331;29;20052;-78
2023/04/03 01:03:41;;;;;;;4.65;1.67;;;;;;;;;;4935262;29;20097;-77
2023/04/03 01:06:11;;;;;;;4.10;1.40;;;;;;;;;;4935831;29;20138;-78
2023/04/03 01:08:40;;;;;;;5.82;1.35;;;;;;;;;;4939697;29;20058;-78
2023/04/03 01:11:07;;;;;;;5.28;1.38;;;;;;;;;;4939468;29;20046;-78
2023/04/03 01:13:33;;;;;;;7.28;1.42;;;;;;;;;;4940593;29;20075;-77
2023/04/03 01:16:01;;;;;;;5.38;2.17;;;;;;;;;;4939007;29;20058;-79
2023/04/03 01:18:28;;;;;;;4.50;1.38;;;;;;;;;;4937106;29;20150;-79
2023/04/03 01:21:10;;;;;;;9.35;1.67;;;;;;;;;;4936946;29;20046;-79
2023/04/03 01:23:53;;;;;;;7.95;1.30;;;;;;;;;;4938789;29;20382;-79
2023/04/03 01:26:21;;;;;;;6.78;1.40;;;;;;;;;;4937265;29;20055;-79
2023/04/03 01:28:48;;;;;;;10.73;1.60;;;;;;;;;;4938502;29;20055;-79
2023/04/03 01:31:15;;;;;;;6.68;1.42;;;;;;;;;;4938347;29;20043;-80
2023/04/03 01:33:43;;;;;;;6.93;1.70;;;;;;;;;;4936582;29;20058;-79
2023/04/03 01:36:13;;;;;;;5.07;1.05;;;;;;;;;;4936458;29;20055;-79
2023/04/03 01:38:40;;;;;;;5.20;1.40;;;;;;;;;;4936229;29;20123;-79
2023/04/03 01:41:06;;;;;;;3.47;1.05;;;;;;;;;;4937201;29;20144;-79
2023/04/03 01:43:33;;;;;;;6.90;1.10;;;;;;;;;;4936558;29;20230;-79
2023/04/03 01:46:00;;;;;;;6.57;1.40;;;;;;;;;;4936965;29;20122;-79
2023/04/03 01:48:26;;;;;;;7.35;1.48;;;;;;;;;;4920644;29;20127;-79
2023/04/03 01:50:54;;;;;;;8.63;1.45;;;;;;;;;;4935694;29;20102;-78
2023/04/03 01:53:20;;;;;;;8.40;1.48;;;;;;;;;;4934421;29;20563;-79
2023/04/03 01:55:48;;;;;;;7.03;1.55;;;;;;;;;;4934688;29;20112;-79
2023/04/03 01:58:14;;;;;;;7.82;1.50;;;;;;;;;;4935006;29;20126;-78
2023/04/03 02:00:41;;;;;;;6.13;1.58;;;;;;;;;;4935431;29;20066;-79
2023/04/03 02:03:08;;;;;;;6.60;1.60;;;;;;;;;;4935309;29;20067;-78
2023/04/03 02:05:34;;;;;;;5.32;1.20;;;;;;;;;;4936468;29;20088;-78
2023/04/03 02:08:01;;;;;;;4.60;1.10;;;;;;;;;;4932324;29;20050;-79
2023/04/03 02:10:28;;;;;;;8.45;1.35;;;;;;;;;;4931978;29;20043;-78
2023/04/03 02:12:56;;;;;;;7.80;1.35;;;;;;;;;;4930196;29;20139;-78
2023/04/03 02:15:24;;;;;;;10.15;1.40;;;;;;;;;;4933145;29;20044;-78
2023/04/03 02:17:51;;;;;;;6.78;1.35;;;;;;;;;;4935449;29;20051;-78
2023/04/03 02:20:19;;;;;;;6.43;1.48;;;;;;;;;;4932079;29;20046;-77
2023/04/03 02:22:46;;;;;;;10.32;1.67;;;;;;;;;;4934580;29;20139;-79
2023/04/03 02:25:13;;;;;;;5.65;1.35;;;;;;;;;;4935178;29;20044;-79
2023/04/03 02:27:39;;;;;;;7.68;1.33;;;;;;;;;;4935882;29;20064;-78
2023/04/03 02:30:06;;;;;;;8.60;1.58;;;;;;;;;;4937663;29;20078;-79
2023/04/03 02:32:33;;;;;;;8.60;1.60;;;;;;;;;;4924855;29;20059;-79
2023/04/03 02:35:00;;;;;;;7.15;1.38;;;;;;;;;;4935985;29;20067;-79
2023/04/03 02:37:27;;;;;;;6.40;1.35;;;;;;;;;;4936678;29;20051;-79
2023/04/03 02:39:56;;;;;;;6.07;1.23;;;;;;;;;;4935386;29;20054;-79
2023/04/03 02:42:23;;;;;;;7.45;1.80;;;;;;;;;;4936949;29;20047;-80
2023/04/03 02:44:51;;;;;;;9.23;1.88;;;;;;;;;;4936741;29;20050;-80
2023/04/03 02:47:18;;;;;;;7.85;1.40;;;;;;;;;;4938839;29;20043;-79
2023/04/03 02:49:45;;;;;;;4.72;1.17;;;;;;;;;;4936415;29;20047;-78
2023/04/03 02:52:12;;;;;;;11.35;1.70;;;;;;;;;;4935143;29;20059;-77
2023/04/03 02:54:39;;;;;;;4.00;1.60;;;;;;;;;;4932618;29;20533;-78
2023/04/03 02:57:08;;;;;;;10.20;1.40;;;;;;;;;;4933666;29;20098;-77
2023/04/03 02:59:36;;;;;;;5.68;1.60;;;;;;;;;;4936869;29;20099;-79
2023/04/03 03:02:02;;;;;;;9.30;1.52;;;;;;;;;;4933677;29;20043;-79
2023/04/03 03:04:31;;;;;;;6.03;1.38;;;;;;;;;;4935998;29;20051;-79
2023/04/03 03:06:58;;;;;;;4.93;1.60;;;;;;;;;;4935703;29;20047;-79
2023/04/03 03:09:26;;;;;;;7.68;1.95;;;;;;;;;;4936412;29;20050;-79
2023/04/03 03:11:56;;;;;;;4.38;1.60;;;;;;;;;;4935955;29;20047;-78
2023/04/03 03:14:23;;;;;;;7.03;1.30;;;;;;;;;;4934378;29;20131;-78
2023/04/03 03:16:50;;;;;;;11.43;1.60;;;;;;;;;;4935209;29;20075;-80
2023/04/03 03:19:16;;;;;;;6.95;1.52;;;;;;;;;;4934051;29;20058;-78
2023/04/03 03:21:43;;;;;;;3.63;1.08;;;;;;;;;;4934539;29;20135;-78
2023/04/03 03:24:09;;;;;;;7.25;1.67;;;;;;;;;;4920163;29;20077;-79
2023/04/03 03:26:37;;;;;;;6.72;1.50;;;;;;;;;;4939458;29;20082;-80
2023/04/03 03:29:07;;;;;;;8.27;1.42;;;;;;;;;;4911536;29;20488;-79
2023/04/03 03:31:34;;;;;;;6.57;1.30;;;;;;;;;;4923066;29;20584;-79
2023/04/03 03:34:00;;;;;;;9.90;1.55;;;;;;;;;;4922984;29;20056;-79
2023/04/03 03:36:27;;;;;;;7.22;1.70;;;;;;;;;;4940636;29;20126;-79
2023/04/03 03:38:53;;;;;;;7.50;1.58;;;;;;;;;;4931179;29;20055;-78
2023/04/03 03:41:20;;;;;;;8.80;1.55;;;;;;;;;;4940112;29;20063;-79
2023/04/03 03:43:50;;;;;;;5.07;1.60;;;;;;;;;;4943085;29;20056;-78
2023/04/03 03:46:17;;;;;;;6.30;1.63;;;;;;;;;;4938249;29;20054;-79
2023/04/03 03:48:45;;;;;;;5.05;1.40;;;;;;;;;;4939478;29;20051;-78
2023/04/03 03:51:11;;;;;;;9.38;1.98;;;;;;;;;;4937846;29;20071;-78
2023/04/03 03:53:39;;;;;;;4.95;1.33;;;;;;;;;;4919169;29;20453;-79
2023/04/03 03:56:10;;;;;;;7.05;1.55;;;;;;;;;;4921212;29;20051;-79
2023/04/03 03:58:38;;;;;;;5.50;1.63;;;;;;;;;;4905250;29;20505;-79
2023/04/03 04:01:06;;;;;;;10.15;1.92;;;;;;;;;;4920245;29;20076;-80
2023/04/03 04:03:38;;;;;;;14.00;2.05;;;;;;;;;;4907640;29;20144;-79
2023/04/03 04:06:07;;;;;;;10.30;1.65;;;;;;;;;;4923373;29;20047;-80
2023/04/03 04:08:33;;;;;;;7.18;1.40;;;;;;;;;;4933029;29;20568;-79
2023/04/03 04:11:00;;;;;;;7.45;1.52;;;;;;;;;;4935913;29;20131;-79
2023/04/03 04:13:27;;;;;;;6.32;1.50;;;;;;;;;;4937233;29;20043;-77
2023/04/03 04:15:54;;;;;;;8.43;1.63;;;;;;;;;;4926605;29;20052;-79
2023/04/03 04:18:22;;;;;;;5.68;1.48;;;;;;;;;;4934050;29;20068;-78
2023/04/03 04:20:49;;;;;;;9.13;2.47;;;;;;;;;;4933928;29;20107;-79
2023/04/03 04:23:17;;;;;;;8.18;1.52;;;;;;;;;;4934815;29;20040;-79
2023/04/03 04:25:45;;;;;;;5.72;1.58;;;;;;;;;;4930755;29;20092;-77
2023/04/03 04:28:13;;;;;;;9.27;1.95;;;;;;;;;;4929622;29;20196;-78
2023/04/03 04:30:40;;;;;;;7.72;1.85;;;;;;;;;;4932034;29;20114;-77
2023/04/03 04:33:07;;;;;;;10.05;1.85;;;;;;;;;;4946904;29;20075;-78
2023/04/03 04:35:34;;;;;;;8.65;1.83;;;;;;;;;;4934022;29;20126;-76
2023/04/03 04:38:02;;;;;;;10.70;1.80;;;;;;;;;;4933469;29;20102;-77
2023/04/03 04:40:29;;;;;;;8.07;1.75;;;;;;;;;;4935115;29;20111;-77
2023/04/03 04:42:56;;;;;;;8.40;1.75;;;;;;;;;;4939299;29;20048;-79
2023/04/03 04:45:23;;;;;;;7.05;1.90;;;;;;;;;;4947083;29;20195;-80
2023/04/03 04:47:52;;;;;;;11.30;1.75;;;;;;;;;;4947177;29;20139;-79
2023/04/03 04:50:19;;;;;;;10.82;1.90;;;;;;;;;;4947896;29;20055;-78
2023/04/03 04:52:46;;;;;;;7.93;2.00;;;;;;;;;;4938238;29;20118;-79
2023/04/03 04:55:13;;;;;;;6.28;1.98;;;;;;;;;;4936295;29;20047;-79
2023/04/03 04:57:42;;;;;;;14.95;2.25;;;;;;;;;;4936038;28;20306;-79
2023/04/03 05:00:15;;;;;;;13.48;1.98;;;;;;;;;;4913483;28;20094;-79
2023/04/03 05:02:41;;;;;;;8.23;1.90;;;;;;;;;;4947393;29;20558;-79
2023/04/03 05:05:08;;;;;;;10.13;1.73;;;;;;;;;;4959014;28;20365;-79
2023/04/03 05:07:39;;;;;;;5.93;1.58;;;;;;;;;;4943353;29;20086;-77
2023/04/03 05:10:09;;;;;;;9.98;2.22;;;;;;;;;;4944449;29;20249;-79
2023/04/03 05:12:36;;;;;;;10.60;2.08;;;;;;;;;;4942777;29;20039;-79
2023/04/03 05:15:04;;;;;;;10.77;2.45;;;;;;;;;;4950195;28;20063;-79
2023/04/03 05:17:32;;;;;;;9.35;1.70;;;;;;;;;;4957653;28;20074;-79
2023/04/03 05:19:59;;;;;;;12.02;2.25;;;;;;;;;;4940551;28;20055;-78
2023/04/03 05:22:27;;;;;;;7.53;2.55;;;;;;;;;;4956157;28;20058;-78
2023/04/03 05:25:00;;;;;;;15.23;2.60;;;;;;;;;;4961243;28;20063;-79
2023/04/03 05:27:28;;;;;;;10.38;2.28;;;;;;;;;;4963561;28;20075;-79
2023/04/03 05:29:57;;;;;;;15.50;2.53;;;;;;;;;;4947725;29;20052;-79
2023/04/03 05:32:27;;;;;;;10.02;2.00;;;;;;;;;;4945482;29;20070;-79
2023/04/03 05:35:13;;;;;;;7.38;2.30;;;;;;;;;;4942576;29;20079;-80
2023/04/03 05:37:41;;;;;;;9.05;2.13;;;;;;;;;;4939282;29;20500;-79
2023/04/03 05:40:12;;;;;;;6.07;1.63;;;;;;;;;;4953507;29;20044;-79
2023/04/03 05:42:42;;;;;;;8.25;2.00;;;;;;;;;;4942249;29;20086;-81
2023/04/03 05:45:09;;;;;;;12.27;2.08;;;;;;;;;;4941121;29;20058;-81
2023/04/03 05:47:36;;;;;;;12.57;2.33;;;;;;;;;;4957589;29;20051;-78
2023/04/03 05:50:05;;;;;;;9.88;1.85;;;;;;;;;;4942399;29;20051;-80
2023/04/03 05:52:35;;;;;;;8.32;1.88;;;;;;;;;;4929124;29;20314;-79
2023/04/03 05:55:02;;;;;;;9.13;1.70;;;;;;;;;;4922502;29;20047;-78
2023/04/03 05:57:35;;;;;;;7.93;1.73;;;;;;;;;;4918064;29;20073;-78
2023/04/03 06:00:07;;;;;;;10.45;1.85;;;;;;;;;;4902166;29;20048;-80
2023/04/03 06:02:39;;;;;;;6.47;1.73;;;;;;;;;;4920012;29;20101;-81
2023/04/03 06:05:11;;;;;;;5.85;1.60;;;;;;;;;;4901614;29;20534;-79
2023/04/03 06:07:38;;;;;;;10.38;1.65;;;;;;;;;;4921655;29;20048;-80
2023/04/03 06:10:05;;;;;;;13.73;1.95;;;;;;;;;;4923523;29;20054;-78
2023/04/03 06:12:32;;;;;;;7.63;1.80;;;;;;;;;;4917872;29;20465;-78
2023/04/03 06:14:58;;;;;;;12.25;1.58;;;;;;;;;;4914745;29;20483;-78
2023/04/03 06:17:26;;;;;;;7.40;1.58;;;;;;;;;;4918057;29;20048;-79
2023/04/03 06:19:53;;;;;;;7.93;1.58;;;;;;;;;;4923508;29;20052;-79
2023/04/03 06:22:21;;;;;;;11.27;2.00;;;;;;;;;;4924910;29;20058;-81
2023/04/03 06:24:47;;;;;;;14.50;2.00;;;;;;;;;;4922499;29;20400;-80
2023/04/03 06:27:14;;;;;;;11.90;1.70;;;;;;;;;;4922807;29;20078;-80
2023/04/03 06:29:41;;;;;;;9.63;1.98;;;;;;;;;;4921183;29;20044;-79
2023/04/03 06:32:07;;;;;;;8.68;1.60;;;;;;;;;;4918112;29;20107;-78
2023/04/03 06:34:36;;;;;;;7.95;1.98;;;;;;;;;;4919196;29;20125;-79
2023/04/03 06:37:03;;;;;;;5.97;1.90;;;;;;;;;;4917406;29;20140;-78
2023/04/03 06:39:30;;;;;;;9.10;2.05;;;;;;;;;;4917564;29;20080;-78
2023/04/03 06:41:57;;;;;;;6.35;1.58;;;;;;;;;;4917315;29;20048;-78
2023/04/03 06:44:35;;;;;;;10.35;2.05;;;;;;;;;;4916581;29;20048;-79
2023/04/03 06:47:02;;;;;;;7.18;2.13;;;;;;;;;;4916216;29;20210;-79
2023/04/03 06:49:29;;;;;;;9.07;2.00;;;;;;;;;;4914205;29;20060;-78
2023/04/03 06:51:56;;;;;;;6.15;2.20;;;;;;;;;;4916448;29;20056;-79
2023/04/03 06:54:22;;;;;;;11.57;2.33;;;;;;;;;;4915072;29;20071;-78
2023/04/03 06:56:50;;;;;;;8.95;2.08;;;;;;;;;;4915302;29;20048;-79
2023/04/03 06:59:16;;;;;;;9.45;2.30;;;;;;;;;;4914669;29;20059;-78
2023/04/03 07:01:45;;;;;;;8.07;2.05;;;;;;;;;;4902178;29;20087;-78
2023/04/03 07:04:15;;;;;;;10.05;2.55;;;;;;;;;;4917595;29;20044;-78
2023/04/03 07:06:42;;;;;;;8.25;2.35;;;;;;;;;;4916553;29;20052;-79
2023/04/03 07:09:10;;;;;;;6.28;2.28;;;;;;;;;;4915230;29;20068;-79
2023/04/03 07:11:37;;;;;;;8.40;2.38;;;;;;;;;;4915954;29;20174;-79
2023/04/03 07:14:04;;;;;;;6.97;2.33;;;;;;;;;;4917862;29;20076;-79
2023/04/03 07:16:30;;;;;;;9.55;2.63;;;;;;;;;;4914544;29;20139;-78
2023/04/03 07:18:58;;;;;;;11.40;2.83;;;;;;;;;;4916618;29;20119;-79
2023/04/03 07:21:24;;;;;;;15.35;2.42;;;;;;;;;;4929889;29;20108;-77
2023/04/03 07:23:51;;;;;;;8.25;2.50;;;;;;;;;;4928157;29;20152;-78
2023/04/03 07:26:18;;;;;;;7.03;2.35;;;;;;;;;;4921704;29;20127;-78
2023/04/03 07:28:48;;;;;;;8.02;2.50;;;;;;;;;;4936265;29;20056;-77
2023/04/03 07:31:16;;;;;;;7.05;2.33;;;;;;;;;;4937882;29;20047;-78
2023/04/03 07:33:43;;;;;;;8.23;2.33;;;;;;;;;;4938538;29;20047;-78
2023/04/03 07:36:15;;;;;;;7.88;2.72;;;;;;;;;;4921564;29;20048;-78
2023/04/03 07:42:36;;;;;;;6.90;2.40;;;;;;;;;;4940902;29;20100;-80
2023/04/03 07:45:04;;;;;;;13.65;2.30;;;;;;;;;;4938676;29;20128;-78
2023/04/03 07:47:31;;;;;;;8.30;2.47;;;;;;;;;;4938893;29;20146;-77
2023/04/03 07:49:57;;;;;;;9.43;2.65;;;;;;;;;;4936662;29;20075;-78
2023/04/03 07:52:25;;;;;;;6.72;2.50;;;;;;;;;;4937319;29;20366;-78
2023/04/03 07:54:51;;;;;;;10.93;2.70;;;;;;;;;;4939454;29;20151;-78
2023/04/03 07:57:20;;;;;;;9.20;2.50;;;;;;;;;;4938848;29;20055;-78
2023/04/03 07:59:47;;;;;;;11.55;3.00;;;;;;;;;;4939771;29;20484;-78
2023/04/03 08:02:13;;;;;;;11.50;3.28;;;;;;;;;;4941598;29;20051;-79
2023/04/03 08:04:40;;;;;;;9.25;2.30;;;;;;;;;;4944187;29;20047;-78
2023/04/03 08:07:07;;;;;;;6.72;2.15;;;;;;;;;;4943140;29;20054;-78
2023/04/03 08:09:34;;;;;;;7.57;2.35;;;;;;;;;;4925549;29;20039;-79
2023/04/03 08:12:00;;;;;;;6.35;2.08;;;;;;;;;;4943533;29;20052;-80
2023/04/03 08:14:30;;;;;;;8.60;3.08;;;;;;;;;;4942744;29;20668;-77
2023/04/03 08:16:57;;;;;;;7.95;2.42;;;;;;;;;;4947760;29;20031;-79
2023/04/03 08:19:23;;;;;;;8.57;2.40;;;;;;;;;;4947620;29;20054;-78
2023/04/03 08:21:53;;;;;;;6.65;2.30;;;;;;;;;;4946055;29;20056;-78
2023/04/03 08:24:20;;;;;;;7.40;1.85;;;;;;;;;;4943621;29;20158;-78
2023/04/03 08:26:46;;;;;;;8.55;2.28;;;;;;;;;;4942910;29;20192;-80
2023/04/03 08:29:13;;;;;;;9.27;2.00;;;;;;;;;;4938774;29;20411;-78
2023/04/03 08:31:39;;;;;;;10.90;2.45;;;;;;;;;;4941733;29;20052;-77
2023/04/03 08:34:08;;;;;;;9.43;2.10;;;;;;;;;;4942795;29;20136;-78
2023/04/03 08:36:36;;;;;;;9.23;2.05;;;;;;;;;;4944382;29;20051;-77
2023/04/03 08:39:02;;;;;;;6.80;2.10;;;;;;;;;;4916833;29;20052;-78
2023/04/03 08:41:39;;;;;;;4.93;1.60;;;;;;;;;;4932320;29;20076;-78
2023/04/03 08:44:22;;;;;;;4.07;1.88;;;;;;;;;;4935765;29;20047;-79
2023/04/03 08:47:02;;;;;;;6.97;2.15;;;;;;;;;;4934851;29;20103;-78
2023/04/03 08:49:46;;;;;;;9.02;1.98;;;;;;;;;;4948333;29;20051;-78
2023/04/03 08:52:16;;;;;;;8.23;2.10;;;;;;;;;;4926616;29;20138;-79
2023/04/03 08:55:01;;;;;;;8.65;2.08;;;;;;;;;;4913824;29;20055;-79
2023/04/03 08:57:30;;;;;;;6.13;2.03;;;;;;;;;;4912394;29;20048;-80
2023/04/03 08:59:58;;;;;;;7.80;1.95;;;;;;;;;;4914956;29;20525;-79
2023/04/03 09:02:44;;;;;;;7.15;2.13;;;;;;;;;;4921358;29;20048;-79
2023/04/03 09:05:18;;;;;;;7.18;1.70;;;;;;;;;;4921378;29;20139;-79
2023/04/03 09:07:54;;;;;;;4.80;1.80;;;;;;;;;;4918309;29;20060;-79
2023/04/03 09:10:27;;;;;;;7.88;2.08;;;;;;;;;;4915854;29;20103;-78
2023/04/03 09:13:01;;;;;;;4.65;1.85;;;;;;;;;;4917617;29;20139;-78
2023/04/03 09:19:07;;;;;;;5.88;1.80;;;;;;;;;;4918411;29;20048;-79
2023/04/03 09:21:37;;;;;;;6.88;2.03;;;;;;;;;;4919485;29;20277;-79
2023/04/03 09:24:06;;;;;;;6.60;1.70;;;;;;;;;;4919688;29;20459;-79
2023/04/03 09:26:35;;;;;;;14.10;2.10;;;;;;;;;;4919584;29;20044;-80
2023/04/03 09:29:06;;;;;;;5.68;1.55;;;;;;;;;;4928041;29;20054;-79
2023/04/03 09:35:20;;;;;;;5.35;1.73;;;;;;;;;;4936264;29;20046;-79
2023/04/03 09:45:36;;;;;;;6.72;1.20;;;;;;;;;;4918484;29;20069;-79
2023/04/03 09:48:15;;;;;;;4.60;1.25;;;;;;;;;;4918454;29;20243;-79
2023/04/03 09:51:01;;;;;;;4.28;1.77;;;;;;;;;;4921156;29;20143;-79
2023/04/03 09:53:39;;;;;;;6.15;1.30;;;;;;;;;;4920248;29;20052;-79
2023/04/03 09:56:15;;;;;;;8.63;1.30;;;;;;;;;;4919324;29;20127;-79
2023/04/03 09:58:43;;;;;;;6.88;1.33;;;;;;;;;;4915380;29;20060;-78
2023/04/03 10:01:22;;;;;;;5.97;1.40;;;;;;;;;;4911284;29;20054;-78
2023/04/03 10:04:02;;;;;;;8.07;1.55;;;;;;;;;;4913723;29;20044;-79
2023/04/03 10:06:31;;;;;;;7.40;1.23;;;;;;;;;;4914481;29;20056;-79
2023/04/03 10:08:59;;;;;;;4.95;1.25;;;;;;;;;;4913353;29;20052;-79
2023/04/03 10:11:26;;;;;;;7.78;1.27;;;;;;;;;;4915163;29;20080;-79
2023/04/03 10:13:59;;;;;;;3.80;1.13;;;;;;;;;;4916665;29;20048;-79
2023/04/03 10:16:36;;;;;;;4.15;1.10;;;;;;;;;;4914765;29;20063;-78
2023/04/03 10:19:26;;;;;;;4.20;1.35;;;;;;;;;;4916161;29;20044;-79
2023/04/03 10:21:59;;;;;;;4.50;1.40;;;;;;;;;;4919535;29;20130;-79
2023/04/03 10:24:44;;;;;;;7.22;1.50;;;;;;;;;;4920537;29;20148;-79
2023/04/03 10:27:16;;;;;;;6.28;1.40;;;;;;;;;;4918916;29;20066;-78
2023/04/03 10:29:48;;;;;;;7.22;1.30;;;;;;;;;;4935413;29;20459;-79
2023/04/03 10:32:33;;;;;;;6.22;1.13;;;;;;;;;;4933438;29;20131;-78
2023/04/03 10:35:12;;;;;;;4.45;1.17;;;;;;;;;;4934857;29;20201;-78
2023/04/03 10:37:48;;;;;;;5.65;1.38;;;;;;;;;;4933877;29;20440;-79
2023/04/03 10:40:32;;;;;;;8.35;1.52;;;;;;;;;;4937865;29;20048;-79
2023/04/03 10:43:05;;;;;;;4.40;1.27;;;;;;;;;;4936202;29;20055;-79
2023/04/03 10:45:51;;;;;;;6.05;1.40;;;;;;;;;;4938663;29;20043;-79
2023/04/03 10:48:18;;;;;;;6.40;1.38;;;;;;;;;;4938655;29;20524;-79
2023/04/03 10:50:54;;;;;;;6.30;1.30;;;;;;;;;;4936339;29;20052;-79
2023/04/03 10:53:32;;;;;;;5.47;1.05;;;;;;;;;;4937042;29;20044;-79
2023/04/03 10:56:07;;;;;;;7.25;1.10;;;;;;;;;;4936862;29;20384;-79
2023/04/03 10:58:40;;;;;;;3.95;1.27;;;;;;;;;;4936621;29;20068;-79
2023/04/03 11:01:12;;;;;;;4.05;1.30;;;;;;;;;;4937086;29;20044;-79
2023/04/03 11:03:45;;;;;;;6.22;1.60;;;;;;;;;;4937246;29;20048;-79
2023/04/03 11:06:15;;;;;;;6.10;1.40;;;;;;;;;;4937049;29;20308;-79
2023/04/03 11:08:44;;;;;;;6.22;1.20;;;;;;;;;;4935948;29;20059;-79
2023/04/03 11:11:17;;;;;;;6.18;1.45;;;;;;;;;;4934891;29;20075;-79
2023/04/03 11:13:48;;;;;;;6.93;1.70;;;;;;;;;;4920645;29;20083;-79
2023/04/03 11:16:18;;;;;;;7.90;1.38;;;;;;;;;;4938388;29;20416;-80
2023/04/03 11:18:49;;;;;;;6.25;1.30;;;;;;;;;;4936392;29;20457;-79
2023/04/03 11:21:21;;;;;;;4.32;1.45;;;;;;;;;;4938854;29;20051;-79
2023/04/03 11:23:49;;;;;;;6.63;1.52;;;;;;;;;;4938148;29;20451;-79
2023/04/03 11:26:17;;;;;;;3.92;1.10;;;;;;;;;;4937442;29;20044;-80
2023/04/03 11:28:46;;;;;;;4.80;1.20;;;;;;;;;;4936961;29;20452;-78
2023/04/03 11:31:31;;;;;;;3.95;0.95;;;;;;;;;;4938175;29;20040;-79
2023/04/03 11:49:43;;;;;;;4.70;1.23;;;;;;;;;;4938181;29;20127;-78
2023/04/03 11:52:11;;;;;;;2.88;1.02;;;;;;;;;;4937872;29;20058;-78
2023/04/03 11:54:46;;;;;;;4.85;1.10;;;;;;;;;;4937755;29;20102;-78
2023/04/03 11:57:33;;;;;;;4.40;1.43;;;;;;;;;;4939248;29;20087;-78
2023/04/03 12:00:00;;;;;;;6.00;1.08;;;;;;;;;;4942544;29;20288;-79
2023/04/03 12:02:36;;;;;;;2.92;0.98;;;;;;;;;;4943832;29;20045;-78
2023/04/03 12:05:24;;;;;;;9.40;2.22;;;;;;;;;;4943834;29;20043;-79
2023/04/03 12:08:09;;;;;;;4.72;1.02;;;;;;;;;;4941143;29;20060;-78
2023/04/03 12:10:36;;;;;;;4.85;1.27;;;;;;;;;;4940137;29;20194;-78
2023/04/03 12:13:13;;;;;;;3.55;0.80;;;;;;;;;;4940133;29;20046;-78
2023/04/03 12:15:40;;;;;;;8.10;1.08;;;;;;;;;;4938398;29;20040;-77
2023/04/03 12:18:24;;;;;;;2.30;0.80;;;;;;;;;;4941769;29;20076;-79
2023/04/03 12:20:51;;;;;;;3.80;1.10;;;;;;;;;;4943737;29;20055;-79
2023/04/03 12:23:31;;;;;;;1.83;0.90;;;;;;;;;;4942690;29;20054;-79
2023/04/03 12:26:04;;;;;;;2.33;0.82;;;;;;;;;;4942394;29;20047;-79
2023/04/03 12:28:36;;;;;;;3.63;1.30;;;;;;;;;;4943700;29;20047;-79
2023/04/03 12:31:05;;;;;;;7.70;1.27;;;;;;;;;;4937286;29;20044;-78
2023/04/03 12:33:36;;;;;;;2.75;1.00;;;;;;;;;;4937032;29;20142;-78
2023/04/03 12:36:26;;;;;;;2.70;0.95;;;;;;;;;;4939831;29;20044;-80
2023/04/03 12:42:19;;;;;;;4.18;1.10;;;;;;;;;;4969632;23;20063;-79
2023/04/03 12:44:46;;;;;;;2.50;0.82;;;;;;;;;;4944222;28;20058;-79
2023/04/03 12:47:22;;;;;;;3.35;1.00;;;;;;;;;;4939752;28;20532;-80
2023/04/03 12:49:49;;;;;;;;;;;;;;;;;;4936913;28;20055;-77
2023/04/03 12:52:21;;;;;;;10.25;1.27;;;;;;;;;;4934959;28;20387;-78
2023/04/03 12:54:48;;;;;;;9.15;3.35;;;;;;;;;;4935754;28;20131;-76
2023/04/03 12:57:15;;;;;;;7.40;1.23;;;;;;;;;;4935856;28;20103;-77
2023/04/03 12:59:45;;;;;;;2.97;0.70;;;;;;;;;;4937015;28;20067;-79
2023/04/03 13:02:17;;;;;;;5.07;1.10;;;;;;;;;;4936170;28;20059;-77
2023/04/03 13:04:48;;;;;;;5.47;0.90;;;;;;;;;;4939319;28;20119;-76
2023/04/03 13:07:21;;;;;;;3.60;0.88;;;;;;;;;;4939376;28;20047;-77
2023/04/03 13:09:59;;;;;;;10.30;1.15;;;;;;;;;;4939961;28;20108;-78
2023/04/03 13:12:26;;;;;;;2.75;0.88;;;;;;;;;;4941025;28;20044;-76
2023/04/03 13:14:58;;;;;;;3.30;1.00;;;;;;;;;;4941868;28;20074;-77
2023/04/03 13:17:25;;;;;;;3.70;1.10;;;;;;;;;;4939119;28;20043;-77
2023/04/03 13:19:52;;;;;;;5.00;1.02;;;;;;;;;;4941878;28;20079;-77
2023/04/03 13:22:43;;;;;;;3.28;1.20;;;;;;;;;;4942838;28;20071;-76
2023/04/03 13:25:12;;;;;;;6.95;1.25;;;;;;;;;;4941404;28;20062;-76
2023/04/03 13:27:42;;;;;;;5.70;1.35;;;;;;;;;;4938562;28;20047;-76
2023/04/03 13:30:20;;;;;;;3.05;0.95;;;;;;;;;;4936095;28;20067;-75
2023/04/03 13:32:48;;;;;;;5.80;0.98;;;;;;;;;;4956818;28;20058;-75
2023/04/03 13:35:27;;;;;;;2.63;1.05;;;;;;;;;;4945966;28;20059;-77
2023/04/03 13:37:55;;;;;;;2.08;0.70;;;;;;;;;;4944607;28;20043;-77
2023/04/03 13:40:25;;;;;;;4.22;1.00;;;;;;;;;;4958588;28;20046;-76
2023/04/03 13:43:00;;;;;;;5.28;1.00;;;;;;;;;;4965288;28;20051;-77
2023/04/03 13:45:38;;;;;;;4.78;0.98;;;;;;;;;;4975428;28;20077;-77
2023/04/03 13:48:17;;;;;;;4.65;1.15;;;;;;;;;;4968288;28;20055;-77
2023/04/03 13:50:56;;;;;;;3.85;0.90;;;;;;;;;;4919327;28;20043;-76
2023/04/03 13:53:29;;;;;;;2.40;0.80;;;;;;;;;;4940822;28;20118;-77
2023/04/03 13:56:12;;;;;;;2.80;0.80;;;;;;;;;;4968974;28;20188;-76
2023/04/03 13:58:52;;;;;;;3.88;1.30;;;;;;;;;;4953817;28;20064;-76
2023/04/03 14:01:26;;;;;;;4.97;0.90;;;;;;;;;;4969570;28;20043;-76
2023/04/03 14:04:02;;;;;;;6.55;1.15;;;;;;;;;;4961361;28;20047;-76
2023/04/03 14:06:31;;;;;;;4.30;1.10;;;;;;;;;;4964300;28;20089;-75
2023/04/03 14:08:59;;;;;;;2.15;0.88;;;;;;;;;;4952107;28;20109;-77
2023/04/03 14:11:39;;;;;;;3.90;0.80;;;;;;;;;;4944308;28;20062;-78
2023/04/03 14:14:17;;;;;;;2.97;0.80;;;;;;;;;;4985587;28;20140;-77
2023/04/03 14:16:54;;;;;;;3.20;0.80;;;;;;;;;;4966872;28;20054;-76
2023/04/03 14:19:25;;;;;;;4.53;1.20;;;;;;;;;;4967303;28;20250;-77
2023/04/03 14:22:18;;;;;;;4.57;1.38;;;;;;;;;;4918746;28;20120;-76
2023/04/03 14:24:50;;;;;;;8.13;1.15;;;;;;;;;;4951698;28;20050;-76
2023/04/03 14:27:31;;;;;;;5.88;1.10;;;;;;;;;;4946962;28;20051;-75
2023/04/03 14:30:07;;;;;;;6.43;1.10;;;;;;;;;;4952919;28;20089;-75
2023/04/03 14:32:35;;;;;;;3.30;1.00;;;;;;;;;;4957599;28;20051;-76
2023/04/03 14:35:13;;;;;;;4.88;1.10;;;;;;;;;;4957616;28;20069;-77
2023/04/03 14:37:41;;;;;;;5.15;1.10;;;;;;;;;;4943520;28;21108;-77
2023/04/03 14:40:19;;;;;;;7.60;1.20;;;;;;;;;;4949545;28;20057;-76
2023/04/03 14:42:50;;;;;;;4.75;1.25;;;;;;;;;;4968943;28;20590;-76
2023/04/03 14:45:26;;;;;;;5.43;1.10;;;;;;;;;;4944581;28;20046;-76
2023/04/03 14:47:56;;;;;;;5.07;0.95;;;;;;;;;;4952375;28;20547;-74
2023/04/03 14:50:29;;;;;;;3.42;0.93;;;;;;;;;;4955628;28;20587;-74
2023/04/03 14:53:00;;;;;;;3.50;1.00;;;;;;;;;;4966003;28;20039;-77
2023/04/03 14:55:31;;;;;;;5.55;1.08;;;;;;;;;;4980461;28;20049;-76
2023/04/03 14:58:09;;;;;;;3.45;1.00;;;;;;;;;;4955801;28;20046;-76
2023/04/03 15:00:37;;;;;;;4.75;1.10;;;;;;;;;;4950291;28;20043;-76
2023/04/03 15:03:18;;;;;;;2.80;1.02;;;;;;;;;;4942187;28;20048;-76
2023/04/03 15:05:50;;;;;;;4.63;0.90;;;;;;;;;;4945269;29;20043;-76
2023/04/03 15:08:25;;;;;;;3.88;1.05;;;;;;;;;;4947044;28;20056;-76
2023/04/03 15:11:03;;;;;;;5.68;1.20;;;;;;;;;;4961798;28;20115;-78
2023/04/03 15:13:39;;;;;;;9.13;0.98;;;;;;;;;;4966960;28;20036;-77
2023/04/03 15:16:16;;;;;;;3.95;1.10;;;;;;;;;;4952388;28;20080;-76
2023/04/03 15:18:49;;;;;;;3.90;1.25;;;;;;;;;;4933956;28;20062;-78
2023/04/03 15:21:18;;;;;;;5.57;1.27;;;;;;;;;;4949089;28;20518;-77
2023/04/03 15:23:45;;;;;;;5.63;1.10;;;;;;;;;;4945132;28;20043;-76
2023/04/03 15:26:22;;;;;;;9.05;1.15;;;;;;;;;;4959526;29;20105;-76
2023/04/03 15:28:49;;;;;;;4.88;1.00;;;;;;;;;;4966447;28;20051;-76
2023/04/03 15:31:15;;;;;;;3.15;1.17;;;;;;;;;;4963513;28;20061;-76
2023/04/03 15:33:43;;;;;;;4.55;1.25;;;;;;;;;;4963014;28;20048;-76
2023/04/03 15:36:09;;;;;;;3.95;1.10;;;;;;;;;;4965389;28;20055;-77
2023/04/03 15:38:56;;;;;;;3.95;1.10;;;;;;;;;;4965618;28;20043;-76